createdAt,value
2019-05-25T00:00:26.596Z,48.93
2019-05-25T00:03:00.727Z,48.94
2019-05-25T00:05:34.834Z,48.94
2019-05-25T00:08:09.364Z,48.91
2019-05-25T00:10:43.485Z,49.01
2019-05-25T00:13:17.693Z,48.97
2019-05-25T00:15:52.140Z,48.94
2019-05-25T00:18:26.548Z,48.94
2019-05-25T00:21:00.670Z,48.96
2019-05-25T00:23:36.084Z,49.01
2019-05-25T00:26:10.001Z,48.92
2019-05-25T00:28:44.582Z,48.92
2019-05-25T00:31:19.769Z,48.91
2019-05-25T00:33:54.012Z,48.95
2019-05-25T00:36:28.126Z,49.01
2019-05-25T00:39:02.446Z,49.00
2019-05-25T00:41:36.558Z,49.01
2019-05-25T00:44:10.651Z,48.96
2019-05-25T00:46:44.567Z,48.90
2019-05-25T00:49:18.582Z,48.86
2019-05-25T00:51:52.751Z,48.87
2019-05-25T00:54:28.272Z,49.00
2019-05-25T00:57:02.788Z,48.88
2019-05-25T00:59:37.026Z,48.92
2019-05-25T01:02:11.084Z,48.86
2019-05-25T01:04:45.125Z,48.90
2019-05-25T01:07:19.349Z,48.87
2019-05-25T01:09:53.613Z,48.82
2019-05-25T01:12:27.632Z,48.85
2019-05-25T01:15:01.739Z,48.71
2019-05-25T01:17:35.939Z,48.61
2019-05-25T01:20:10.735Z,48.55
2019-05-25T01:22:44.816Z,48.55
2019-05-25T01:25:19.482Z,48.54
2019-05-25T01:27:53.475Z,48.46
2019-05-25T01:30:27.842Z,48.42
2019-05-25T01:33:01.928Z,48.35
2019-05-25T01:35:36.177Z,48.37
2019-05-25T01:38:10.038Z,48.31
2019-05-25T01:40:44.281Z,48.25
2019-05-25T01:43:18.092Z,48.27
2019-05-25T01:45:53.432Z,48.27
2019-05-25T01:48:27.520Z,48.27
2019-05-25T01:51:01.523Z,48.28
2019-05-25T01:53:35.368Z,48.24
2019-05-25T01:56:09.454Z,48.29
2019-05-25T01:58:43.424Z,48.28
2019-05-25T02:01:17.617Z,48.23
2019-05-25T02:03:51.625Z,48.24
2019-05-25T02:06:26.319Z,48.22
2019-05-25T02:09:00.441Z,48.22
2019-05-25T02:11:34.646Z,48.25
2019-05-25T02:14:09.749Z,48.24
2019-05-25T02:16:43.795Z,48.17
2019-05-25T02:19:17.729Z,48.23
2019-05-25T02:21:51.947Z,48.24
2019-05-25T02:24:25.796Z,48.19
2019-05-25T02:27:00.157Z,48.16
2019-05-25T02:29:34.178Z,48.17
2019-05-25T02:32:08.595Z,48.17
2019-05-25T02:34:42.597Z,48.12
2019-05-25T02:37:17.644Z,48.17
2019-05-25T02:39:51.780Z,48.18
2019-05-25T02:42:26.650Z,48.21
2019-05-25T02:45:00.700Z,48.17
2019-05-25T02:47:34.951Z,48.20
2019-05-25T02:50:09.960Z,48.17
2019-05-25T02:52:43.956Z,48.16
2019-05-25T02:55:33.167Z,48.24
2019-05-25T02:57:54.302Z,48.20
2019-05-25T03:00:35.442Z,48.20
2019-05-25T03:03:10.299Z,48.04
2019-05-25T03:05:44.436Z,48.18
2019-05-25T03:08:18.451Z,48.17
2019-05-25T03:10:54.882Z,48.11
2019-05-25T03:13:30.504Z,48.11
2019-05-25T03:16:04.657Z,48.05
2019-05-25T03:18:39.158Z,48.05
2019-05-25T03:21:13.191Z,48.05
2019-05-25T03:23:47.120Z,48.02
2019-05-25T03:26:21.425Z,48.04
2019-05-25T03:28:55.279Z,48.11
2019-05-25T03:31:29.418Z,48.08
2019-05-25T03:34:03.513Z,48.05
2019-05-25T03:36:37.831Z,48.08
2019-05-25T03:39:12.059Z,48.03
2019-05-25T03:41:46.225Z,48.04
2019-05-25T03:44:20.304Z,48.02
2019-05-25T03:46:54.313Z,48.00
2019-05-25T03:49:28.274Z,48.02
2019-05-25T03:52:02.437Z,48.00
2019-05-25T03:54:36.534Z,47.94
2019-05-25T03:57:10.367Z,47.99
2019-05-25T03:59:44.746Z,48.00
2019-05-25T04:02:18.871Z,48.01
2019-05-25T04:04:53.401Z,48.00
2019-05-25T04:07:27.512Z,47.92
2019-05-25T04:10:02.175Z,47.93
2019-05-25T04:12:36.407Z,47.87
2019-05-25T04:15:10.662Z,47.88
2019-05-25T04:17:44.949Z,47.86
2019-05-25T04:20:19.014Z,47.81
2019-05-25T04:22:52.904Z,47.77
2019-05-25T04:25:27.007Z,47.75
2019-05-25T04:28:01.059Z,47.74
2019-05-25T04:30:35.114Z,47.61
2019-05-25T04:33:09.261Z,47.58
2019-05-25T04:35:43.263Z,47.57
2019-05-25T04:38:17.168Z,47.58
2019-05-25T04:40:51.192Z,47.62
2019-05-25T04:43:25.024Z,47.54
2019-05-25T04:45:59.389Z,47.51
2019-05-25T04:48:33.517Z,47.48
2019-05-25T04:51:07.836Z,47.49
2019-05-25T04:53:41.924Z,47.42
2019-05-25T04:56:16.102Z,47.42
2019-05-25T04:58:50.104Z,47.42
2019-05-25T05:01:25.369Z,47.36
2019-05-25T05:04:00.925Z,47.33
2019-05-25T05:06:34.947Z,47.34
2019-05-25T05:09:10.671Z,47.24
2019-05-25T05:11:45.092Z,47.23
2019-05-25T05:14:19.070Z,47.21
2019-05-25T05:16:53.102Z,47.25
2019-05-25T05:19:26.886Z,47.30
2019-05-25T05:22:00.706Z,47.24
2019-05-25T05:24:34.863Z,47.00
2019-05-25T05:27:09.775Z,47.23
2019-05-25T05:29:43.844Z,47.29
2019-05-25T05:32:27.149Z,47.23
2019-05-25T05:34:54.238Z,47.24
2019-05-25T05:37:29.013Z,47.23
2019-05-25T05:40:03.645Z,47.17
2019-05-25T05:42:40.443Z,47.21
2019-05-25T05:45:15.742Z,47.19
2019-05-25T05:47:52.569Z,47.19
2019-05-25T05:50:26.959Z,47.16
2019-05-25T05:53:03.320Z,47.07
2019-05-25T05:55:37.585Z,47.04
2019-05-25T05:58:11.600Z,47.06
2019-05-25T06:00:45.843Z,47.03
2019-05-25T06:03:20.190Z,46.94
2019-05-25T06:05:54.292Z,46.87
2019-05-25T06:08:28.406Z,46.80
2019-05-25T06:11:02.622Z,46.84
2019-05-25T06:13:38.202Z,46.58
2019-05-25T06:16:12.391Z,46.57
2019-05-25T06:18:46.310Z,46.45
2019-05-25T06:21:20.441Z,46.59
2019-05-25T06:23:54.595Z,46.57
2019-05-25T06:26:29.124Z,46.49
2019-05-25T06:29:03.473Z,46.36
2019-05-25T06:31:37.831Z,46.40
2019-05-25T06:34:11.988Z,46.32
2019-05-25T06:36:46.683Z,46.15
2019-05-25T06:39:20.855Z,46.20
2019-05-25T06:41:55.173Z,46.13
2019-05-25T06:44:29.641Z,45.95
2019-05-25T06:47:04.062Z,45.89
2019-05-25T06:49:38.162Z,45.88
2019-05-25T06:52:12.272Z,45.59
2019-05-25T06:54:46.440Z,45.63
2019-05-25T06:57:20.647Z,45.77
2019-05-25T06:59:55.017Z,45.59
2019-05-25T07:02:29.357Z,45.62
2019-05-25T07:05:03.798Z,45.49
2019-05-25T07:07:38.100Z,45.54
2019-05-25T07:10:12.495Z,45.42
2019-05-25T07:12:46.990Z,45.16
2019-05-25T07:15:21.796Z,45.45
2019-05-25T07:17:56.089Z,45.32
2019-05-25T07:20:30.400Z,45.26
2019-05-25T07:23:04.516Z,45.12
2019-05-25T07:25:38.763Z,45.03
2019-05-25T07:28:12.918Z,44.56
2019-05-25T07:30:47.107Z,44.82
2019-05-25T07:33:21.060Z,44.39
2019-05-25T07:35:55.422Z,44.46
2019-05-25T07:38:29.604Z,44.37
2019-05-25T07:41:04.371Z,44.32
2019-05-25T07:43:38.418Z,44.20
2019-05-25T07:46:16.491Z,44.19
2019-05-25T07:48:50.491Z,44.23
2019-05-25T07:51:24.821Z,44.09
2019-05-25T07:53:59.268Z,43.98
2019-05-25T07:56:33.365Z,43.85
2019-05-25T07:59:08.107Z,43.84
2019-05-25T08:01:42.407Z,44.00
2019-05-25T08:04:16.864Z,43.81
2019-05-25T08:06:50.990Z,43.91
2019-05-25T08:09:25.353Z,43.71
2019-05-25T08:11:59.641Z,43.52
2019-05-25T08:14:33.934Z,43.50
2019-05-25T08:17:08.943Z,43.48
2019-05-25T08:19:43.294Z,43.16
2019-05-25T08:22:17.597Z,43.41
2019-05-25T08:24:52.754Z,43.50
2019-05-25T08:27:27.083Z,43.27
2019-05-25T08:30:01.551Z,43.19
2019-05-25T08:32:35.609Z,43.17
2019-05-25T08:35:14.209Z,43.12
2019-05-25T08:37:48.284Z,43.10
2019-05-25T08:40:23.245Z,43.07
2019-05-25T08:42:57.487Z,42.92
2019-05-25T08:45:31.607Z,42.75
2019-05-25T08:48:06.388Z,42.74
2019-05-25T08:50:41.010Z,42.67
2019-05-25T08:53:15.196Z,42.71
2019-05-25T08:55:49.639Z,42.71
2019-05-25T08:58:23.685Z,42.75
2019-05-25T09:00:58.172Z,42.61
2019-05-25T09:03:32.443Z,42.51
2019-05-25T09:06:06.420Z,42.58
2019-05-25T09:08:40.616Z,42.39
2019-05-25T09:11:14.588Z,42.40
2019-05-25T09:13:48.617Z,42.18
2019-05-25T09:16:23.017Z,42.27
2019-05-25T09:18:57.090Z,42.10
2019-05-25T09:21:31.546Z,42.38
2019-05-25T09:24:06.012Z,42.26
2019-05-25T09:26:40.295Z,42.12
2019-05-25T09:29:14.529Z,42.21
2019-05-25T09:31:48.764Z,41.96
2019-05-25T09:34:24.188Z,42.01
2019-05-25T09:37:00.843Z,41.88
2019-05-25T09:39:37.432Z,42.01
2019-05-25T09:42:14.007Z,41.78
2019-05-25T09:44:49.626Z,41.79
2019-05-25T09:47:23.896Z,41.79
2019-05-25T09:50:00.770Z,41.78
2019-05-25T09:52:34.911Z,41.77
2019-05-25T09:55:09.982Z,41.85
2019-05-25T09:57:44.217Z,41.65
2019-05-25T10:00:18.834Z,41.91
2019-05-25T10:02:53.051Z,41.54
2019-05-25T10:05:27.446Z,41.76
2019-05-25T10:08:01.402Z,41.54
2019-05-25T10:10:35.526Z,41.54
2019-05-25T10:13:09.445Z,41.54
2019-05-25T10:15:43.901Z,41.57
2019-05-25T10:18:17.875Z,41.70
2019-05-25T10:20:52.408Z,41.50
2019-05-25T10:23:27.796Z,41.46
2019-05-25T10:26:02.078Z,41.45
2019-05-25T10:28:36.106Z,41.40
2019-05-25T10:31:10.410Z,41.30
2019-05-25T10:33:45.377Z,41.33
2019-05-25T10:36:19.811Z,41.50
2019-05-25T10:38:54.771Z,41.44
2019-05-25T10:41:29.272Z,41.30
2019-05-25T10:44:03.720Z,41.36
2019-05-25T10:46:37.720Z,41.26
2019-05-25T10:49:11.988Z,41.28
2019-05-25T10:51:46.244Z,41.25
2019-05-25T10:54:20.477Z,41.13
2019-05-25T10:56:54.424Z,41.07
2019-05-25T10:59:28.750Z,41.21
2019-05-25T11:02:03.000Z,41.07
2019-05-25T11:04:37.012Z,41.06
2019-05-25T11:07:11.208Z,41.20
2019-05-25T11:09:45.419Z,41.12
2019-05-25T11:12:19.882Z,41.16
2019-05-25T11:14:53.962Z,41.21
2019-05-25T11:17:28.398Z,41.16
2019-05-25T11:20:02.537Z,41.09
2019-05-25T11:22:36.836Z,41.21
2019-05-25T11:25:11.138Z,41.17
2019-05-25T11:27:45.535Z,41.22
2019-05-25T11:30:19.535Z,41.14
2019-05-25T11:32:53.890Z,41.35
2019-05-25T11:35:28.186Z,41.08
2019-05-25T11:38:02.407Z,41.15
2019-05-25T11:40:36.262Z,41.12
2019-05-25T11:43:10.552Z,41.08
2019-05-25T11:45:45.490Z,41.08
2019-05-25T11:48:19.734Z,41.04
2019-05-25T11:50:53.991Z,41.04
2019-05-25T11:53:28.112Z,41.01
2019-05-25T11:56:02.154Z,41.01
2019-05-25T11:58:46.902Z,40.98
2019-05-25T12:01:12.649Z,40.94
2019-05-25T12:03:46.676Z,41.18
2019-05-25T12:06:20.834Z,41.01
2019-05-25T12:08:54.918Z,40.93
2019-05-25T12:11:28.827Z,40.83
2019-05-25T12:14:02.849Z,40.84
2019-05-25T12:16:36.842Z,40.78
2019-05-25T12:19:14.718Z,40.84
2019-05-25T12:21:47.226Z,40.75
2019-05-25T12:24:33.931Z,40.89
2019-05-25T12:27:08.031Z,40.80
2019-05-25T12:29:42.243Z,40.80
2019-05-25T12:32:16.021Z,40.88
2019-05-25T12:34:50.213Z,41.09
2019-05-25T12:37:24.378Z,40.84
2019-05-25T12:39:58.788Z,40.94
2019-05-25T12:42:32.692Z,40.79
2019-05-25T12:45:08.218Z,40.85
2019-05-25T12:47:42.448Z,40.81
2019-05-25T12:50:17.689Z,40.69
2019-05-25T12:52:51.979Z,40.77
2019-05-25T12:55:26.040Z,40.75
2019-05-25T12:58:00.293Z,40.72
2019-05-25T13:00:34.350Z,40.76
2019-05-25T13:03:10.931Z,40.77
2019-05-25T13:05:44.347Z,40.84
2019-05-25T13:08:18.728Z,40.89
2019-05-25T13:10:52.842Z,40.84
2019-05-25T13:13:27.019Z,40.90
2019-05-25T13:16:00.984Z,40.90
2019-05-25T13:18:35.108Z,41.03
2019-05-25T13:21:09.038Z,40.91
2019-05-25T13:23:43.479Z,41.03
2019-05-25T13:26:17.645Z,41.04
2019-05-25T13:28:51.789Z,41.10
2019-05-25T13:31:25.873Z,41.11
2019-05-25T13:34:00.281Z,41.15
2019-05-25T13:36:34.365Z,41.22
2019-05-25T13:39:09.557Z,41.29
2019-05-25T13:41:43.565Z,41.29
2019-05-25T13:44:17.666Z,41.36
2019-05-25T13:46:51.655Z,41.38
2019-05-25T13:49:26.728Z,41.41
2019-05-25T13:52:02.038Z,41.50
2019-05-25T13:54:36.119Z,41.52
2019-05-25T13:57:10.130Z,41.55
2019-05-25T13:59:44.341Z,41.60
2019-05-25T14:02:18.499Z,41.67
2019-05-25T14:04:52.609Z,41.67
2019-05-25T14:07:26.524Z,41.70
2019-05-25T14:10:00.747Z,41.68
2019-05-25T14:12:34.816Z,41.77
2019-05-25T14:15:09.685Z,41.85
2019-05-25T14:17:43.541Z,41.84
2019-05-25T14:20:18.230Z,41.81
2019-05-25T14:22:52.222Z,41.86
2019-05-25T14:25:26.481Z,41.93
2019-05-25T14:28:00.674Z,41.95
2019-05-25T14:30:35.099Z,41.98
2019-05-25T14:33:09.072Z,42.04
2019-05-25T14:35:43.755Z,42.06
2019-05-25T14:38:17.983Z,42.16
2019-05-25T14:40:52.146Z,42.15
2019-05-25T14:43:26.181Z,42.15
2019-05-25T14:46:00.154Z,42.28
2019-05-25T14:48:34.416Z,42.33
2019-05-25T14:51:08.569Z,42.38
2019-05-25T14:53:42.628Z,42.41
2019-05-25T14:56:16.696Z,42.45
2019-05-25T14:58:50.620Z,42.42
2019-05-25T15:01:24.749Z,42.45
2019-05-25T15:03:58.732Z,42.51
2019-05-25T15:06:33.267Z,42.56
2019-05-25T15:09:09.241Z,42.57
2019-05-25T15:11:43.140Z,42.60
2019-05-25T15:14:17.393Z,42.61
2019-05-25T15:16:51.496Z,42.65
2019-05-25T15:19:26.759Z,42.69
2019-05-25T15:22:00.789Z,42.70
2019-05-25T15:24:35.097Z,42.71
2019-05-25T15:27:09.210Z,42.70
2019-05-25T15:29:43.360Z,42.68
2019-05-25T15:32:20.484Z,42.72
2019-05-25T15:34:53.410Z,42.65
2019-05-25T15:37:27.539Z,42.73
2019-05-25T15:40:01.559Z,42.65
2019-05-25T15:42:35.518Z,42.55
2019-05-25T15:45:10.101Z,42.75
2019-05-25T15:47:43.986Z,42.66
2019-05-25T15:50:18.224Z,42.71
2019-05-25T15:52:52.284Z,42.77
2019-05-25T15:55:26.267Z,42.75
2019-05-25T15:58:00.686Z,42.80
2019-05-25T16:00:48.724Z,42.85
2019-05-25T16:03:23.361Z,42.80
2019-05-25T16:05:57.767Z,42.80
2019-05-25T16:08:31.993Z,42.79
2019-05-25T16:11:06.432Z,42.84
2019-05-25T16:13:40.446Z,42.76
2019-05-25T16:16:14.404Z,42.80
2019-05-25T16:18:48.510Z,42.80
2019-05-25T16:21:22.639Z,42.87
2019-05-25T16:23:56.652Z,42.86
2019-05-25T16:26:44.921Z,42.87
2019-05-25T16:29:06.769Z,42.74
2019-05-25T16:31:40.995Z,42.80
2019-05-25T16:34:14.954Z,42.81
2019-05-25T16:36:48.860Z,42.75
2019-05-25T16:39:23.008Z,42.86
2019-05-25T16:41:57.111Z,42.67
2019-05-25T16:44:31.231Z,42.80
2019-05-25T16:47:05.282Z,42.78
2019-05-25T16:49:39.668Z,42.84
2019-05-25T16:52:13.699Z,42.78
2019-05-25T16:54:48.113Z,42.84
2019-05-25T16:57:22.380Z,42.81
2019-05-25T17:00:00.219Z,42.79
2019-05-25T17:02:34.281Z,42.75
2019-05-25T17:05:09.170Z,42.86
2019-05-25T17:07:43.299Z,42.78
2019-05-25T17:10:17.641Z,42.89
2019-05-25T17:12:51.729Z,42.87
2019-05-25T17:15:25.863Z,42.87
2019-05-25T17:18:04.392Z,42.89
2019-05-25T17:20:35.725Z,42.83
2019-05-25T17:23:09.797Z,42.86
2019-05-25T17:25:43.734Z,42.84
2019-05-25T17:28:17.824Z,42.81
2019-05-25T17:30:51.995Z,42.77
2019-05-25T17:33:26.213Z,42.77
2019-05-25T17:36:00.348Z,42.66
2019-05-25T17:38:34.590Z,42.85
2019-05-25T17:41:08.587Z,42.57
2019-05-25T17:43:42.774Z,42.66
2019-05-25T17:46:16.750Z,42.78
2019-05-25T17:48:51.041Z,42.69
2019-05-25T17:51:26.509Z,42.54
2019-05-25T17:54:00.526Z,42.57
2019-05-25T17:56:34.869Z,42.62
2019-05-25T17:59:09.025Z,42.64
2019-05-25T18:01:44.249Z,42.65
2019-05-25T18:04:18.257Z,42.64
2019-05-25T18:06:52.256Z,42.64
2019-05-25T18:09:26.289Z,42.75
2019-05-25T18:12:00.625Z,42.77
2019-05-25T18:14:34.499Z,42.68
2019-05-25T18:17:08.778Z,42.57
2019-05-25T18:19:42.966Z,42.69
2019-05-25T18:22:17.002Z,42.73
2019-05-25T18:24:51.327Z,42.64
2019-05-25T18:27:25.577Z,42.67
2019-05-25T18:29:59.798Z,42.60
2019-05-25T18:32:33.882Z,42.64
2019-05-25T18:35:08.301Z,42.49
2019-05-25T18:37:42.297Z,42.56
2019-05-25T18:40:16.955Z,42.48
2019-05-25T18:42:51.007Z,42.56
2019-05-25T18:45:25.204Z,42.47
2019-05-25T18:47:59.464Z,42.49
2019-05-25T18:50:33.541Z,42.23
2019-05-25T18:53:07.801Z,42.49
2019-05-25T18:55:42.358Z,42.53
2019-05-25T18:58:16.315Z,42.45
2019-05-25T19:00:50.403Z,42.56
2019-05-25T19:03:24.417Z,42.38
2019-05-25T19:05:58.397Z,42.44
2019-05-25T19:08:32.374Z,42.41
2019-05-25T19:11:06.218Z,42.41
2019-05-25T19:13:40.498Z,42.43
2019-05-25T19:16:14.483Z,42.57
2019-05-25T19:18:48.644Z,42.44
2019-05-25T19:21:22.710Z,42.57
2019-05-25T19:23:56.628Z,42.40
2019-05-25T19:26:30.668Z,42.49
2019-05-25T19:29:05.865Z,42.55
2019-05-25T19:31:39.891Z,42.41
2019-05-25T19:34:14.126Z,42.41
2019-05-25T19:36:48.153Z,42.56
2019-05-25T19:39:23.260Z,42.52
2019-05-25T19:41:57.419Z,42.42
2019-05-25T19:44:31.229Z,42.38
2019-05-25T19:47:05.420Z,42.40
2019-05-25T19:49:39.504Z,42.32
2019-05-25T19:52:13.448Z,42.31
2019-05-25T19:54:47.317Z,42.32
2019-05-25T19:57:21.365Z,42.29
2019-05-25T19:59:55.462Z,42.41
2019-05-25T20:02:29.465Z,42.32
2019-05-25T20:05:15.771Z,42.43
2019-05-25T20:07:39.443Z,42.35
2019-05-25T20:10:14.545Z,42.35
2019-05-25T20:12:48.734Z,42.28
2019-05-25T20:15:22.906Z,42.42
2019-05-25T20:17:56.856Z,42.37
2019-05-25T20:20:31.070Z,42.40
2019-05-25T20:23:05.083Z,42.54
2019-05-25T20:25:39.004Z,42.47
2019-05-25T20:28:13.068Z,42.49
2019-05-25T20:30:46.861Z,42.49
2019-05-25T20:33:27.488Z,42.39
2019-05-25T20:35:56.551Z,42.36
2019-05-25T20:38:30.343Z,42.41
2019-05-25T20:41:04.664Z,42.35
2019-05-25T20:43:38.601Z,42.41
2019-05-25T20:46:13.002Z,42.48
2019-05-25T20:48:47.054Z,42.48
2019-05-25T20:51:21.045Z,42.40
2019-05-25T20:53:56.767Z,42.36
2019-05-25T20:56:30.877Z,42.44
2019-05-25T20:59:04.937Z,42.27
2019-05-25T21:01:39.176Z,42.14
2019-05-25T21:04:13.413Z,42.22
2019-05-25T21:06:47.342Z,42.11
2019-05-25T21:09:21.698Z,41.99
2019-05-25T21:11:56.432Z,42.31
2019-05-25T21:14:31.133Z,42.19
2019-05-25T21:17:05.228Z,42.22
2019-05-25T21:19:39.566Z,42.22
2019-05-25T21:22:13.637Z,42.25
2019-05-25T21:24:47.833Z,42.32
2019-05-25T21:27:21.854Z,42.22
2019-05-25T21:29:55.895Z,42.15
2019-05-25T21:32:30.026Z,42.35
2019-05-25T21:35:04.102Z,42.46
2019-05-25T21:37:38.116Z,42.63
2019-05-25T21:40:13.477Z,42.60
2019-05-25T21:42:47.337Z,42.66
2019-05-25T21:45:21.942Z,42.58
2019-05-25T21:47:56.578Z,42.48
2019-05-25T21:50:32.034Z,42.57
2019-05-25T21:53:06.183Z,42.54
2019-05-25T21:55:39.989Z,42.50
2019-05-25T21:58:14.074Z,42.55
2019-05-25T22:00:48.472Z,42.61
2019-05-25T22:03:22.684Z,42.47
2019-05-25T22:05:56.793Z,42.72
2019-05-25T22:08:30.982Z,42.62
2019-05-25T22:11:05.160Z,42.67
2019-05-25T22:13:38.974Z,42.52
2019-05-25T22:16:13.193Z,42.65
2019-05-25T22:18:47.035Z,42.43
2019-05-25T22:21:21.260Z,42.62
2019-05-25T22:23:55.403Z,42.66
2019-05-25T22:26:29.694Z,42.71
2019-05-25T22:29:04.252Z,42.58
2019-05-25T22:31:38.372Z,42.69
2019-05-25T22:34:12.515Z,42.68
2019-05-25T22:36:46.488Z,42.84
2019-05-25T22:39:20.540Z,42.74
2019-05-25T22:41:54.780Z,42.61
2019-05-25T22:44:30.068Z,42.71
2019-05-25T22:47:05.095Z,42.83
2019-05-25T22:49:39.309Z,42.69
2019-05-25T22:52:13.435Z,42.71
2019-05-25T22:54:47.512Z,42.61
2019-05-25T22:57:21.690Z,42.64
2019-05-25T22:59:56.145Z,42.48
2019-05-25T23:02:30.365Z,42.67
2019-05-25T23:05:07.097Z,42.72
2019-05-25T23:07:40.473Z,42.77
2019-05-25T23:10:14.664Z,42.67
2019-05-25T23:12:48.732Z,42.63
2019-05-25T23:15:22.975Z,42.70
2019-05-25T23:17:56.825Z,42.65
2019-05-25T23:20:30.636Z,42.65
2019-05-25T23:23:04.851Z,42.90
2019-05-25T23:25:38.612Z,42.65
2019-05-25T23:28:12.421Z,42.62
2019-05-25T23:30:47.269Z,42.75
2019-05-25T23:33:21.454Z,42.77
2019-05-25T23:35:55.534Z,42.70
2019-05-25T23:38:29.712Z,42.77
2019-05-25T23:41:03.674Z,42.62
2019-05-25T23:43:37.748Z,42.64
2019-05-25T23:46:11.566Z,42.72
2019-05-25T23:48:45.735Z,42.77
2019-05-25T23:51:19.705Z,42.69
2019-05-25T23:53:53.891Z,42.50
2019-05-25T23:56:27.963Z,42.59
2019-05-25T23:59:01.836Z,42.47
